sensor_id;sensor_type;location;lat;lon;timestamp;P1;durP1;ratioP1;P2;durP2;ratioP2
59922;SDS011;45778;51.142;3.732;2023-12-20T00:01:23;8.52;;;2.17;;
59922;SDS011;45778;51.142;3.732;2023-12-20T00:03:49;17.55;;;3.65;;
59922;SDS011;45778;51.142;3.732;2023-12-20T00:06:14;7.18;;;2.28;;
59922;SDS011;45778;51.142;3.732;2023-12-20T00:08:40;9.02;;;2.70;;
59922;SDS011;45778;51.142;3.732;2023-12-20T00:11:06;11.80;;;2.55;;
59922;SDS011;45778;51.142;3.732;2023-12-20T00:13:31;5.18;;;1.95;;
59922;SDS011;45778;51.142;3.732;2023-12-20T00:15:57;14.82;;;2.70;;
59922;SDS011;45778;51.142;3.732;2023-12-20T00:18:23;15.25;;;3.45;;
59922;SDS011;45778;51.142;3.732;2023-12-20T00:20:48;11.40;;;4.32;;
59922;SDS011;45778;51.142;3.732;2023-12-20T00:23:14;13.15;;;3.92;;
59922;SDS011;45778;51.142;3.732;2023-12-20T00:25:40;11.63;;;3.60;;
59922;SDS011;45778;51.142;3.732;2023-12-20T00:28:05;17.80;;;4.53;;
59922;SDS011;45778;51.142;3.732;2023-12-20T00:30:31;15.35;;;4.70;;
59922;SDS011;45778;51.142;3.732;2023-12-20T00:32:57;26.50;;;9.00;;
59922;SDS011;45778;51.142;3.732;2023-12-20T00:35:23;21.90;;;5.20;;
59922;SDS011;45778;51.142;3.732;2023-12-20T00:37:49;23.10;;;6.35;;
59922;SDS011;45778;51.142;3.732;2023-12-20T00:40:14;30.63;;;7.82;;
59922;SDS011;45778;51.142;3.732;2023-12-20T00:42:40;13.63;;;4.45;;
59922;SDS011;45778;51.142;3.732;2023-12-20T00:45:06;7.70;;;2.92;;
59922;SDS011;45778;51.142;3.732;2023-12-20T00:47:32;14.23;;;3.55;;
59922;SDS011;45778;51.142;3.732;2023-12-20T00:49:57;14.25;;;3.13;;
59922;SDS011;45778;51.142;3.732;2023-12-20T00:52:23;11.95;;;2.42;;
59922;SDS011;45778;51.142;3.732;2023-12-20T00:54:49;14.20;;;3.08;;
59922;SDS011;45778;51.142;3.732;2023-12-20T00:57:15;13.95;;;2.85;;
59922;SDS011;45778;51.142;3.732;2023-12-20T00:59:41;11.50;;;2.88;;
59922;SDS011;45778;51.142;3.732;2023-12-20T01:02:07;10.98;;;2.58;;
59922;SDS011;45778;51.142;3.732;2023-12-20T01:04:33;9.02;;;2.47;;
59922;SDS011;45778;51.142;3.732;2023-12-20T01:06:59;10.20;;;2.30;;
59922;SDS011;45778;51.142;3.732;2023-12-20T01:09:25;11.75;;;2.47;;
59922;SDS011;45778;51.142;3.732;2023-12-20T01:11:53;9.75;;;1.88;;
59922;SDS011;45778;51.142;3.732;2023-12-20T01:14:19;9.63;;;2.53;;
59922;SDS011;45778;51.142;3.732;2023-12-20T01:16:45;13.48;;;2.75;;
59922;SDS011;45778;51.142;3.732;2023-12-20T01:19:11;7.93;;;2.03;;
59922;SDS011;45778;51.142;3.732;2023-12-20T01:21:38;12.27;;;2.35;;
59922;SDS011;45778;51.142;3.732;2023-12-20T01:24:04;10.60;;;2.42;;
59922;SDS011;45778;51.142;3.732;2023-12-20T01:26:29;9.90;;;2.05;;
59922;SDS011;45778;51.142;3.732;2023-12-20T01:28:55;10.48;;;1.92;;
59922;SDS011;45778;51.142;3.732;2023-12-20T01:31:21;14.93;;;2.20;;
59922;SDS011;45778;51.142;3.732;2023-12-20T01:33:46;11.95;;;1.80;;
59922;SDS011;45778;51.142;3.732;2023-12-20T01:36:12;9.23;;;2.20;;
59922;SDS011;45778;51.142;3.732;2023-12-20T01:38:38;10.82;;;2.33;;
59922;SDS011;45778;51.142;3.732;2023-12-20T01:41:04;9.75;;;2.45;;
59922;SDS011;45778;51.142;3.732;2023-12-20T01:43:30;11.75;;;2.53;;
59922;SDS011;45778;51.142;3.732;2023-12-20T01:45:56;13.07;;;2.70;;
59922;SDS011;45778;51.142;3.732;2023-12-20T01:48:23;6.35;;;2.05;;
59922;SDS011;45778;51.142;3.732;2023-12-20T01:50:50;10.85;;;1.70;;
59922;SDS011;45778;51.142;3.732;2023-12-20T01:53:16;15.75;;;3.63;;
59922;SDS011;45778;51.142;3.732;2023-12-20T01:55:44;13.82;;;2.28;;
59922;SDS011;45778;51.142;3.732;2023-12-20T01:58:10;9.13;;;1.60;;
59922;SDS011;45778;51.142;3.732;2023-12-20T02:00:37;13.35;;;2.03;;
59922;SDS011;45778;51.142;3.732;2023-12-20T02:03:03;12.63;;;2.30;;
59922;SDS011;45778;51.142;3.732;2023-12-20T02:05:29;9.15;;;1.65;;
59922;SDS011;45778;51.142;3.732;2023-12-20T02:07:56;6.57;;;1.35;;
59922;SDS011;45778;51.142;3.732;2023-12-20T02:10:22;13.77;;;2.22;;
59922;SDS011;45778;51.142;3.732;2023-12-20T02:12:48;11.15;;;1.50;;
59922;SDS011;45778;51.142;3.732;2023-12-20T02:15:14;7.22;;;1.35;;
59922;SDS011;45778;51.142;3.732;2023-12-20T02:17:40;12.50;;;1.33;;
59922;SDS011;45778;51.142;3.732;2023-12-20T02:20:06;12.20;;;2.60;;
59922;SDS011;45778;51.142;3.732;2023-12-20T02:22:32;8.45;;;1.67;;
59922;SDS011;45778;51.142;3.732;2023-12-20T02:24:57;9.65;;;1.95;;
59922;SDS011;45778;51.142;3.732;2023-12-20T02:27:23;9.05;;;1.52;;
59922;SDS011;45778;51.142;3.732;2023-12-20T02:29:49;10.48;;;1.63;;
59922;SDS011;45778;51.142;3.732;2023-12-20T02:32:19;10.80;;;1.67;;
59922;SDS011;45778;51.142;3.732;2023-12-20T02:34:47;13.25;;;1.55;;
59922;SDS011;45778;51.142;3.732;2023-12-20T02:37:13;12.43;;;1.75;;
59922;SDS011;45778;51.142;3.732;2023-12-20T02:39:39;13.90;;;1.60;;
59922;SDS011;45778;51.142;3.732;2023-12-20T02:42:05;7.75;;;1.65;;
59922;SDS011;45778;51.142;3.732;2023-12-20T02:44:30;9.43;;;2.05;;
59922;SDS011;45778;51.142;3.732;2023-12-20T02:46:56;12.80;;;2.83;;
59922;SDS011;45778;51.142;3.732;2023-12-20T02:49:21;12.80;;;2.35;;
59922;SDS011;45778;51.142;3.732;2023-12-20T02:51:47;12.15;;;1.80;;
59922;SDS011;45778;51.142;3.732;2023-12-20T02:54:13;13.48;;;2.15;;
59922;SDS011;45778;51.142;3.732;2023-12-20T02:56:39;17.33;;;1.80;;
59922;SDS011;45778;51.142;3.732;2023-12-20T02:59:04;9.40;;;1.85;;
59922;SDS011;45778;51.142;3.732;2023-12-20T03:01:34;14.18;;;2.33;;
59922;SDS011;45778;51.142;3.732;2023-12-20T03:03:59;18.65;;;2.38;;
59922;SDS011;45778;51.142;3.732;2023-12-20T03:06:25;10.95;;;1.88;;
59922;SDS011;45778;51.142;3.732;2023-12-20T03:08:54;9.90;;;2.00;;
59922;SDS011;45778;51.142;3.732;2023-12-20T03:11:19;8.68;;;1.52;;
59922;SDS011;45778;51.142;3.732;2023-12-20T03:13:45;9.27;;;2.00;;
59922;SDS011;45778;51.142;3.732;2023-12-20T03:16:11;11.95;;;1.70;;
59922;SDS011;45778;51.142;3.732;2023-12-20T03:18:38;15.82;;;1.75;;
59922;SDS011;45778;51.142;3.732;2023-12-20T03:21:04;11.57;;;1.88;;
59922;SDS011;45778;51.142;3.732;2023-12-20T03:23:30;3.53;;;1.00;;
59922;SDS011;45778;51.142;3.732;2023-12-20T03:25:57;11.02;;;1.65;;
59922;SDS011;45778;51.142;3.732;2023-12-20T03:28:23;10.07;;;1.92;;
59922;SDS011;45778;51.142;3.732;2023-12-20T03:30:49;16.02;;;1.95;;
59922;SDS011;45778;51.142;3.732;2023-12-20T03:33:15;12.65;;;2.00;;
59922;SDS011;45778;51.142;3.732;2023-12-20T03:35:41;8.57;;;2.45;;
59922;SDS011;45778;51.142;3.732;2023-12-20T03:38:06;14.77;;;2.03;;
59922;SDS011;45778;51.142;3.732;2023-12-20T03:40:32;16.02;;;1.55;;
59922;SDS011;45778;51.142;3.732;2023-12-20T03:42:58;10.68;;;1.67;;
59922;SDS011;45778;51.142;3.732;2023-12-20T03:45:24;11.82;;;2.10;;
59922;SDS011;45778;51.142;3.732;2023-12-20T03:47:50;6.60;;;1.77;;
59922;SDS011;45778;51.142;3.732;2023-12-20T03:50:20;7.25;;;1.58;;
59922;SDS011;45778;51.142;3.732;2023-12-20T03:52:47;13.43;;;1.88;;
59922;SDS011;45778;51.142;3.732;2023-12-20T03:55:12;8.57;;;1.55;;
59922;SDS011;45778;51.142;3.732;2023-12-20T03:57:38;7.20;;;1.73;;
59922;SDS011;45778;51.142;3.732;2023-12-20T04:00:04;10.85;;;2.10;;
59922;SDS011;45778;51.142;3.732;2023-12-20T04:02:35;10.45;;;1.40;;
59922;SDS011;45778;51.142;3.732;2023-12-20T04:05:07;9.15;;;1.75;;
59922;SDS011;45778;51.142;3.732;2023-12-20T04:07:35;8.82;;;1.25;;
59922;SDS011;45778;51.142;3.732;2023-12-20T04:10:01;7.53;;;1.50;;
59922;SDS011;45778;51.142;3.732;2023-12-20T04:12:29;12.93;;;2.47;;
59922;SDS011;45778;51.142;3.732;2023-12-20T04:14:54;15.65;;;1.75;;
59922;SDS011;45778;51.142;3.732;2023-12-20T04:17:20;17.10;;;1.80;;
59922;SDS011;45778;51.142;3.732;2023-12-20T04:19:48;8.75;;;1.80;;
59922;SDS011;45778;51.142;3.732;2023-12-20T04:22:17;9.63;;;1.10;;
59922;SDS011;45778;51.142;3.732;2023-12-20T04:24:44;15.25;;;2.25;;
59922;SDS011;45778;51.142;3.732;2023-12-20T04:27:10;11.07;;;1.58;;
59922;SDS011;45778;51.142;3.732;2023-12-20T04:29:35;8.75;;;1.25;;
59922;SDS011;45778;51.142;3.732;2023-12-20T04:32:04;10.25;;;1.20;;
59922;SDS011;45778;51.142;3.732;2023-12-20T04:34:30;7.90;;;1.63;;
59922;SDS011;45778;51.142;3.732;2023-12-20T04:36:56;9.98;;;1.67;;
59922;SDS011;45778;51.142;3.732;2023-12-20T04:39:21;14.85;;;2.08;;
59922;SDS011;45778;51.142;3.732;2023-12-20T04:41:47;10.68;;;1.52;;
59922;SDS011;45778;51.142;3.732;2023-12-20T04:44:13;8.75;;;1.95;;
59922;SDS011;45778;51.142;3.732;2023-12-20T04:46:39;14.18;;;1.60;;
59922;SDS011;45778;51.142;3.732;2023-12-20T04:49:05;3.78;;;1.50;;
59922;SDS011;45778;51.142;3.732;2023-12-20T04:51:33;7.15;;;2.00;;
59922;SDS011;45778;51.142;3.732;2023-12-20T04:53:59;10.55;;;2.03;;
59922;SDS011;45778;51.142;3.732;2023-12-20T04:56:25;13.88;;;2.10;;
59922;SDS011;45778;51.142;3.732;2023-12-20T04:58:50;11.23;;;1.60;;
59922;SDS011;45778;51.142;3.732;2023-12-20T05:01:16;8.23;;;1.20;;
59922;SDS011;45778;51.142;3.732;2023-12-20T05:03:42;9.77;;;1.40;;
59922;SDS011;45778;51.142;3.732;2023-12-20T05:06:07;15.95;;;2.50;;
59922;SDS011;45778;51.142;3.732;2023-12-20T05:08:34;10.07;;;1.92;;
59922;SDS011;45778;51.142;3.732;2023-12-20T05:11:00;12.90;;;1.98;;
59922;SDS011;45778;51.142;3.732;2023-12-20T05:13:25;8.52;;;1.92;;
59922;SDS011;45778;51.142;3.732;2023-12-20T05:15:51;12.07;;;2.10;;
59922;SDS011;45778;51.142;3.732;2023-12-20T05:18:17;9.63;;;2.05;;
59922;SDS011;45778;51.142;3.732;2023-12-20T05:20:42;13.70;;;2.25;;
59922;SDS011;45778;51.142;3.732;2023-12-20T05:23:09;12.70;;;2.67;;
59922;SDS011;45778;51.142;3.732;2023-12-20T05:25:36;12.63;;;2.13;;
59922;SDS011;45778;51.142;3.732;2023-12-20T05:28:02;9.30;;;2.17;;
59922;SDS011;45778;51.142;3.732;2023-12-20T05:30:27;8.55;;;1.80;;
59922;SDS011;45778;51.142;3.732;2023-12-20T05:32:53;16.40;;;2.53;;
59922;SDS011;45778;51.142;3.732;2023-12-20T05:35:19;7.32;;;1.90;;
59922;SDS011;45778;51.142;3.732;2023-12-20T05:37:44;6.65;;;2.40;;
59922;SDS011;45778;51.142;3.732;2023-12-20T05:40:10;11.43;;;2.10;;
59922;SDS011;45778;51.142;3.732;2023-12-20T05:42:36;7.63;;;1.83;;
59922;SDS011;45778;51.142;3.732;2023-12-20T05:45:03;14.43;;;2.33;;
59922;SDS011;45778;51.142;3.732;2023-12-20T05:47:30;14.38;;;1.83;;
59922;SDS011;45778;51.142;3.732;2023-12-20T05:49:55;11.02;;;4.05;;
59922;SDS011;45778;51.142;3.732;2023-12-20T05:52:21;14.32;;;2.08;;
59922;SDS011;45778;51.142;3.732;2023-12-20T05:54:47;12.55;;;2.78;;
59922;SDS011;45778;51.142;3.732;2023-12-20T05:57:13;11.88;;;1.90;;
59922;SDS011;45778;51.142;3.732;2023-12-20T05:59:38;8.52;;;1.33;;
59922;SDS011;45778;51.142;3.732;2023-12-20T06:02:04;6.72;;;1.58;;
59922;SDS011;45778;51.142;3.732;2023-12-20T06:04:30;11.05;;;2.10;;
59922;SDS011;45778;51.142;3.732;2023-12-20T06:06:59;12.10;;;1.52;;
59922;SDS011;45778;51.142;3.732;2023-12-20T06:09:26;7.07;;;1.50;;
59922;SDS011;45778;51.142;3.732;2023-12-20T06:11:52;10.20;;;1.90;;
59922;SDS011;45778;51.142;3.732;2023-12-20T06:14:17;7.75;;;1.63;;
59922;SDS011;45778;51.142;3.732;2023-12-20T06:16:44;13.65;;;2.58;;
59922;SDS011;45778;51.142;3.732;2023-12-20T06:19:10;11.68;;;1.75;;
59922;SDS011;45778;51.142;3.732;2023-12-20T06:21:36;11.95;;;1.65;;
59922;SDS011;45778;51.142;3.732;2023-12-20T06:24:02;14.63;;;2.25;;
59922;SDS011;45778;51.142;3.732;2023-12-20T06:26:27;5.72;;;1.17;;
59922;SDS011;45778;51.142;3.732;2023-12-20T06:28:53;9.43;;;1.60;;
59922;SDS011;45778;51.142;3.732;2023-12-20T06:31:19;22.25;;;2.95;;
59922;SDS011;45778;51.142;3.732;2023-12-20T06:33:44;10.15;;;2.10;;
59922;SDS011;45778;51.142;3.732;2023-12-20T06:36:13;6.78;;;1.60;;
59922;SDS011;45778;51.142;3.732;2023-12-20T06:38:39;9.93;;;1.65;;
59922;SDS011;45778;51.142;3.732;2023-12-20T06:41:05;12.25;;;1.85;;
59922;SDS011;45778;51.142;3.732;2023-12-20T06:43:33;5.03;;;1.20;;
59922;SDS011;45778;51.142;3.732;2023-12-20T06:46:02;5.95;;;1.05;;
59922;SDS011;45778;51.142;3.732;2023-12-20T06:48:28;6.30;;;1.50;;
59922;SDS011;45778;51.142;3.732;2023-12-20T06:50:53;9.73;;;1.38;;
59922;SDS011;45778;51.142;3.732;2023-12-20T06:53:19;9.05;;;1.23;;
59922;SDS011;45778;51.142;3.732;2023-12-20T06:55:45;3.47;;;0.95;;
59922;SDS011;45778;51.142;3.732;2023-12-20T06:58:10;8.60;;;1.08;;
59922;SDS011;45778;51.142;3.732;2023-12-20T07:00:36;8.68;;;1.48;;
59922;SDS011;45778;51.142;3.732;2023-12-20T07:03:02;8.73;;;1.33;;
59922;SDS011;45778;51.142;3.732;2023-12-20T07:05:28;6.57;;;1.38;;
59922;SDS011;45778;51.142;3.732;2023-12-20T07:07:54;7.05;;;1.63;;
59922;SDS011;45778;51.142;3.732;2023-12-20T07:10:19;16.05;;;2.00;;
59922;SDS011;45778;51.142;3.732;2023-12-20T07:12:45;12.35;;;1.75;;
59922;SDS011;45778;51.142;3.732;2023-12-20T07:15:11;5.68;;;1.40;;
59922;SDS011;45778;51.142;3.732;2023-12-20T07:17:37;10.43;;;1.60;;
59922;SDS011;45778;51.142;3.732;2023-12-20T07:20:02;9.38;;;1.90;;
59922;SDS011;45778;51.142;3.732;2023-12-20T07:22:29;6.82;;;2.15;;
59922;SDS011;45778;51.142;3.732;2023-12-20T07:24:58;14.07;;;1.65;;
59922;SDS011;45778;51.142;3.732;2023-12-20T07:27:25;6.65;;;2.58;;
59922;SDS011;45778;51.142;3.732;2023-12-20T07:29:51;7.45;;;1.48;;
59922;SDS011;45778;51.142;3.732;2023-12-20T07:32:17;13.63;;;2.55;;
59922;SDS011;45778;51.142;3.732;2023-12-20T07:34:42;6.15;;;2.05;;
59922;SDS011;45778;51.142;3.732;2023-12-20T07:37:08;10.52;;;2.13;;
59922;SDS011;45778;51.142;3.732;2023-12-20T07:39:39;9.13;;;1.83;;
59922;SDS011;45778;51.142;3.732;2023-12-20T07:42:05;7.15;;;1.75;;
59922;SDS011;45778;51.142;3.732;2023-12-20T07:44:31;10.48;;;2.25;;
59922;SDS011;45778;51.142;3.732;2023-12-20T07:46:57;9.80;;;2.53;;
59922;SDS011;45778;51.142;3.732;2023-12-20T07:49:23;10.68;;;2.08;;
59922;SDS011;45778;51.142;3.732;2023-12-20T07:51:48;10.48;;;1.67;;
59922;SDS011;45778;51.142;3.732;2023-12-20T07:54:15;8.77;;;1.60;;
59922;SDS011;45778;51.142;3.732;2023-12-20T07:56:41;4.97;;;1.00;;
59922;SDS011;45778;51.142;3.732;2023-12-20T07:59:06;8.48;;;1.65;;
59922;SDS011;45778;51.142;3.732;2023-12-20T08:01:32;8.43;;;1.73;;
59922;SDS011;45778;51.142;3.732;2023-12-20T08:03:58;12.05;;;2.72;;
59922;SDS011;45778;51.142;3.732;2023-12-20T08:06:23;9.68;;;1.88;;
59922;SDS011;45778;51.142;3.732;2023-12-20T08:08:49;7.38;;;1.48;;
59922;SDS011;45778;51.142;3.732;2023-12-20T08:11:15;12.05;;;1.65;;
59922;SDS011;45778;51.142;3.732;2023-12-20T08:13:40;6.45;;;1.42;;
59922;SDS011;45778;51.142;3.732;2023-12-20T08:16:06;4.90;;;1.33;;
59922;SDS011;45778;51.142;3.732;2023-12-20T08:18:32;7.40;;;1.50;;
59922;SDS011;45778;51.142;3.732;2023-12-20T08:20:58;10.63;;;2.22;;
59922;SDS011;45778;51.142;3.732;2023-12-20T08:23:25;9.13;;;1.67;;
59922;SDS011;45778;51.142;3.732;2023-12-20T08:25:50;8.35;;;1.55;;
59922;SDS011;45778;51.142;3.732;2023-12-20T08:28:16;9.13;;;1.48;;
59922;SDS011;45778;51.142;3.732;2023-12-20T08:30:41;10.43;;;1.67;;
59922;SDS011;45778;51.142;3.732;2023-12-20T08:33:07;5.85;;;1.20;;
59922;SDS011;45778;51.142;3.732;2023-12-20T08:35:37;9.68;;;1.42;;
59922;SDS011;45778;51.142;3.732;2023-12-20T08:38:06;8.05;;;1.52;;
59922;SDS011;45778;51.142;3.732;2023-12-20T08:40:32;11.30;;;2.78;;
59922;SDS011;45778;51.142;3.732;2023-12-20T08:42:57;5.95;;;1.45;;
59922;SDS011;45778;51.142;3.732;2023-12-20T08:45:23;6.93;;;1.85;;
59922;SDS011;45778;51.142;3.732;2023-12-20T08:47:49;7.25;;;1.73;;
59922;SDS011;45778;51.142;3.732;2023-12-20T08:50:15;12.05;;;2.10;;
59922;SDS011;45778;51.142;3.732;2023-12-20T08:52:41;10.35;;;1.77;;
59922;SDS011;45778;51.142;3.732;2023-12-20T08:55:07;7.85;;;1.65;;
59922;SDS011;45778;51.142;3.732;2023-12-20T08:57:33;10.18;;;1.77;;
59922;SDS011;45778;51.142;3.732;2023-12-20T08:59:59;5.40;;;1.60;;
59922;SDS011;45778;51.142;3.732;2023-12-20T09:02:24;8.88;;;1.65;;
59922;SDS011;45778;51.142;3.732;2023-12-20T09:04:50;10.25;;;2.03;;
59922;SDS011;45778;51.142;3.732;2023-12-20T09:07:25;14.63;;;2.03;;
59922;SDS011;45778;51.142;3.732;2023-12-20T09:09:52;11.85;;;2.10;;
59922;SDS011;45778;51.142;3.732;2023-12-20T09:12:18;9.68;;;1.42;;
59922;SDS011;45778;51.142;3.732;2023-12-20T09:14:45;5.78;;;2.08;;
59922;SDS011;45778;51.142;3.732;2023-12-20T09:17:11;9.10;;;1.85;;
59922;SDS011;45778;51.142;3.732;2023-12-20T09:19:37;2.67;;;1.52;;
59922;SDS011;45778;51.142;3.732;2023-12-20T09:22:04;6.07;;;1.67;;
59922;SDS011;45778;51.142;3.732;2023-12-20T09:24:30;8.10;;;1.40;;
59922;SDS011;45778;51.142;3.732;2023-12-20T09:26:56;11.45;;;1.27;;
59922;SDS011;45778;51.142;3.732;2023-12-20T09:29:21;11.80;;;1.85;;
59922;SDS011;45778;51.142;3.732;2023-12-20T09:31:47;4.80;;;1.20;;
59922;SDS011;45778;51.142;3.732;2023-12-20T09:34:14;8.52;;;2.05;;
59922;SDS011;45778;51.142;3.732;2023-12-20T09:36:40;12.10;;;1.63;;
59922;SDS011;45778;51.142;3.732;2023-12-20T09:39:11;2.17;;;0.90;;
59922;SDS011;45778;51.142;3.732;2023-12-20T09:41:44;10.18;;;2.08;;
59922;SDS011;45778;51.142;3.732;2023-12-20T09:44:18;3.63;;;1.05;;
59922;SDS011;45778;51.142;3.732;2023-12-20T09:46:44;10.95;;;2.30;;
59922;SDS011;45778;51.142;3.732;2023-12-20T09:49:11;7.18;;;1.40;;
59922;SDS011;45778;51.142;3.732;2023-12-20T09:51:37;5.93;;;1.45;;
59922;SDS011;45778;51.142;3.732;2023-12-20T09:54:04;5.70;;;1.30;;
59922;SDS011;45778;51.142;3.732;2023-12-20T09:56:30;4.13;;;1.05;;
59922;SDS011;45778;51.142;3.732;2023-12-20T09:58:56;10.05;;;1.70;;
59922;SDS011;45778;51.142;3.732;2023-12-20T10:01:23;11.57;;;1.45;;
59922;SDS011;45778;51.142;3.732;2023-12-20T10:03:49;11.23;;;1.77;;
59922;SDS011;45778;51.142;3.732;2023-12-20T10:06:17;7.20;;;1.48;;
59922;SDS011;45778;51.142;3.732;2023-12-20T10:08:43;18.52;;;2.70;;
59922;SDS011;45778;51.142;3.732;2023-12-20T10:11:09;10.35;;;2.25;;
59922;SDS011;45778;51.142;3.732;2023-12-20T10:13:34;4.47;;;1.23;;
59922;SDS011;45778;51.142;3.732;2023-12-20T10:16:07;6.32;;;1.27;;
59922;SDS011;45778;51.142;3.732;2023-12-20T10:18:33;9.65;;;1.20;;
59922;SDS011;45778;51.142;3.732;2023-12-20T10:20:59;9.65;;;1.25;;
59922;SDS011;45778;51.142;3.732;2023-12-20T10:23:25;4.40;;;1.38;;
59922;SDS011;45778;51.142;3.732;2023-12-20T10:26:09;7.88;;;1.33;;
59922;SDS011;45778;51.142;3.732;2023-12-20T10:28:37;11.35;;;1.77;;
59922;SDS011;45778;51.142;3.732;2023-12-20T10:31:02;7.07;;;1.67;;
59922;SDS011;45778;51.142;3.732;2023-12-20T10:33:29;5.22;;;2.00;;
59922;SDS011;45778;51.142;3.732;2023-12-20T10:35:57;9.00;;;1.27;;
59922;SDS011;45778;51.142;3.732;2023-12-20T10:38:23;15.32;;;2.13;;
59922;SDS011;45778;51.142;3.732;2023-12-20T10:40:48;7.97;;;1.48;;
59922;SDS011;45778;51.142;3.732;2023-12-20T10:43:19;10.43;;;1.67;;
59922;SDS011;45778;51.142;3.732;2023-12-20T10:45:45;11.80;;;1.63;;
59922;SDS011;45778;51.142;3.732;2023-12-20T10:48:11;3.45;;;1.30;;
59922;SDS011;45778;51.142;3.732;2023-12-20T10:50:37;9.85;;;1.25;;
59922;SDS011;45778;51.142;3.732;2023-12-20T10:53:06;7.85;;;1.33;;
59922;SDS011;45778;51.142;3.732;2023-12-20T10:55:32;7.88;;;1.65;;
59922;SDS011;45778;51.142;3.732;2023-12-20T10:58:03;13.85;;;2.83;;
59922;SDS011;45778;51.142;3.732;2023-12-20T11:00:32;29.83;;;2.15;;
59922;SDS011;45778;51.142;3.732;2023-12-20T11:03:00;6.93;;;1.65;;
59922;SDS011;45778;51.142;3.732;2023-12-20T11:08:09;8.98;;;1.58;;
59922;SDS011;45778;51.142;3.732;2023-12-20T11:13:17;9.63;;;1.60;;
59922;SDS011;45778;51.142;3.732;2023-12-20T11:15:52;8.55;;;1.13;;
59922;SDS011;45778;51.142;3.732;2023-12-20T11:18:18;10.70;;;1.75;;
59922;SDS011;45778;51.142;3.732;2023-12-20T11:20:43;11.43;;;1.55;;
59922;SDS011;45778;51.142;3.732;2023-12-20T11:23:09;5.63;;;1.90;;
59922;SDS011;45778;51.142;3.732;2023-12-20T11:28:14;7.72;;;1.95;;
59922;SDS011;45778;51.142;3.732;2023-12-20T11:30:40;9.55;;;1.50;;
59922;SDS011;45778;51.142;3.732;2023-12-20T11:33:16;11.10;;;1.95;;
59922;SDS011;45778;51.142;3.732;2023-12-20T11:35:50;8.70;;;1.45;;
59922;SDS011;45778;51.142;3.732;2023-12-20T11:38:20;11.85;;;1.63;;
59922;SDS011;45778;51.142;3.732;2023-12-20T11:40:47;9.10;;;1.55;;
59922;SDS011;45778;51.142;3.732;2023-12-20T11:46:20;6.50;;;1.45;;
59922;SDS011;45778;51.142;3.732;2023-12-20T11:48:46;8.07;;;2.05;;
59922;SDS011;45778;51.142;3.732;2023-12-20T11:51:13;13.25;;;1.98;;
59922;SDS011;45778;51.142;3.732;2023-12-20T11:53:39;7.20;;;1.50;;
59922;SDS011;45778;51.142;3.732;2023-12-20T11:56:07;5.75;;;1.70;;
59922;SDS011;45778;51.142;3.732;2023-12-20T11:58:36;9.25;;;1.95;;
59922;SDS011;45778;51.142;3.732;2023-12-20T12:01:03;8.48;;;1.52;;
59922;SDS011;45778;51.142;3.732;2023-12-20T12:03:32;7.78;;;1.50;;
59922;SDS011;45778;51.142;3.732;2023-12-20T12:05:59;7.53;;;1.50;;
59922;SDS011;45778;51.142;3.732;2023-12-20T12:08:25;15.07;;;1.60;;
59922;SDS011;45778;51.142;3.732;2023-12-20T12:10:51;9.05;;;1.58;;
59922;SDS011;45778;51.142;3.732;2023-12-20T12:13:17;6.05;;;1.73;;
59922;SDS011;45778;51.142;3.732;2023-12-20T12:15:43;9.15;;;1.65;;
59922;SDS011;45778;51.142;3.732;2023-12-20T12:18:09;10.90;;;1.63;;
59922;SDS011;45778;51.142;3.732;2023-12-20T12:20:35;9.55;;;2.00;;
59922;SDS011;45778;51.142;3.732;2023-12-20T12:23:02;8.35;;;1.63;;
59922;SDS011;45778;51.142;3.732;2023-12-20T12:25:32;7.22;;;2.65;;
59922;SDS011;45778;51.142;3.732;2023-12-20T12:28:00;9.18;;;1.42;;
59922;SDS011;45778;51.142;3.732;2023-12-20T12:30:26;11.77;;;1.83;;
59922;SDS011;45778;51.142;3.732;2023-12-20T12:32:52;9.05;;;2.20;;
59922;SDS011;45778;51.142;3.732;2023-12-20T12:35:19;9.63;;;1.95;;
59922;SDS011;45778;51.142;3.732;2023-12-20T12:37:45;10.75;;;1.88;;
59922;SDS011;45778;51.142;3.732;2023-12-20T12:40:15;12.35;;;1.58;;
59922;SDS011;45778;51.142;3.732;2023-12-20T12:42:45;6.70;;;1.60;;
59922;SDS011;45778;51.142;3.732;2023-12-20T12:45:11;7.18;;;1.85;;
59922;SDS011;45778;51.142;3.732;2023-12-20T12:47:37;7.75;;;1.20;;
59922;SDS011;45778;51.142;3.732;2023-12-20T12:50:04;14.52;;;1.73;;
59922;SDS011;45778;51.142;3.732;2023-12-20T12:52:30;8.50;;;1.52;;
59922;SDS011;45778;51.142;3.732;2023-12-20T12:54:56;9.90;;;1.95;;
59922;SDS011;45778;51.142;3.732;2023-12-20T12:57:21;7.35;;;1.48;;
59922;SDS011;45778;51.142;3.732;2023-12-20T12:59:47;8.73;;;1.10;;
59922;SDS011;45778;51.142;3.732;2023-12-20T13:02:13;9.20;;;1.52;;
59922;SDS011;45778;51.142;3.732;2023-12-20T13:04:40;13.77;;;1.67;;
59922;SDS011;45778;51.142;3.732;2023-12-20T13:07:06;14.90;;;1.80;;
59922;SDS011;45778;51.142;3.732;2023-12-20T13:09:33;7.45;;;1.55;;
59922;SDS011;45778;51.142;3.732;2023-12-20T13:11:59;9.50;;;1.88;;
59922;SDS011;45778;51.142;3.732;2023-12-20T13:14:28;13.50;;;2.10;;
59922;SDS011;45778;51.142;3.732;2023-12-20T13:16:54;13.93;;;1.50;;
59922;SDS011;45778;51.142;3.732;2023-12-20T13:19:21;13.68;;;1.50;;
59922;SDS011;45778;51.142;3.732;2023-12-20T13:21:46;5.05;;;1.20;;
59922;SDS011;45778;51.142;3.732;2023-12-20T13:24:13;6.18;;;1.13;;
59922;SDS011;45778;51.142;3.732;2023-12-20T13:26:39;10.07;;;1.25;;
59922;SDS011;45778;51.142;3.732;2023-12-20T13:29:04;13.50;;;1.85;;
59922;SDS011;45778;51.142;3.732;2023-12-20T13:31:30;5.38;;;1.20;;
59922;SDS011;45778;51.142;3.732;2023-12-20T13:33:56;6.35;;;1.30;;
59922;SDS011;45778;51.142;3.732;2023-12-20T13:36:21;9.73;;;1.48;;
59922;SDS011;45778;51.142;3.732;2023-12-20T13:38:47;10.15;;;1.55;;
59922;SDS011;45778;51.142;3.732;2023-12-20T13:41:13;6.55;;;1.15;;
59922;SDS011;45778;51.142;3.732;2023-12-20T13:43:38;7.72;;;1.70;;
59922;SDS011;45778;51.142;3.732;2023-12-20T13:46:04;15.63;;;1.60;;
59922;SDS011;45778;51.142;3.732;2023-12-20T13:48:30;6.38;;;1.63;;
59922;SDS011;45778;51.142;3.732;2023-12-20T13:50:56;9.68;;;1.13;;
59922;SDS011;45778;51.142;3.732;2023-12-20T13:53:22;15.77;;;2.15;;
59922;SDS011;45778;51.142;3.732;2023-12-20T13:55:47;6.97;;;1.52;;
59922;SDS011;45778;51.142;3.732;2023-12-20T13:58:13;6.00;;;0.90;;
59922;SDS011;45778;51.142;3.732;2023-12-20T14:00:39;9.90;;;1.52;;
59922;SDS011;45778;51.142;3.732;2023-12-20T14:03:05;11.52;;;1.77;;
59922;SDS011;45778;51.142;3.732;2023-12-20T14:05:32;6.35;;;1.02;;
59922;SDS011;45778;51.142;3.732;2023-12-20T14:07:58;11.15;;;1.77;;
59922;SDS011;45778;51.142;3.732;2023-12-20T14:10:24;4.80;;;1.25;;
59922;SDS011;45778;51.142;3.732;2023-12-20T14:12:53;8.50;;;1.80;;
59922;SDS011;45778;51.142;3.732;2023-12-20T14:15:19;9.68;;;1.45;;
59922;SDS011;45778;51.142;3.732;2023-12-20T14:17:45;12.20;;;2.00;;
59922;SDS011;45778;51.142;3.732;2023-12-20T14:20:11;6.85;;;2.00;;
59922;SDS011;45778;51.142;3.732;2023-12-20T14:22:41;19.55;;;2.20;;
59922;SDS011;45778;51.142;3.732;2023-12-20T14:25:13;11.30;;;1.33;;
59922;SDS011;45778;51.142;3.732;2023-12-20T14:27:39;12.93;;;2.25;;
59922;SDS011;45778;51.142;3.732;2023-12-20T14:30:08;7.50;;;1.60;;
59922;SDS011;45778;51.142;3.732;2023-12-20T14:32:35;12.90;;;2.17;;
59922;SDS011;45778;51.142;3.732;2023-12-20T14:35:04;6.80;;;1.33;;
59922;SDS011;45778;51.142;3.732;2023-12-20T14:37:31;10.35;;;2.70;;
59922;SDS011;45778;51.142;3.732;2023-12-20T14:39:57;10.25;;;1.85;;
59922;SDS011;45778;51.142;3.732;2023-12-20T14:42:23;11.35;;;2.13;;
59922;SDS011;45778;51.142;3.732;2023-12-20T14:44:48;8.80;;;2.28;;
59922;SDS011;45778;51.142;3.732;2023-12-20T14:47:17;11.25;;;1.42;;